DAL182 TJSJ-KSFO
Flight info
| Callsign | DAL182 |
|---|---|
| Flight time | N/A |
| Altitude | 32000 |
| Route | ACONY3 PALDE DCT DONQU Y185 OMN DCT TAY DCT LGC DCT VUZ J41 LOBBS Q116 GOOGY J41 MEM/N0473F340 DCT EOS DCT ICT J28 GCK DCT LAA DCT PUB J28 MLF J80 OAL DCT INYOE DYAMD5 |
| Aircraft | A339/H-SADE1E2E3GHIJ3J5M1P2RWXY/LB2D1 |
Departure
| Time | N/A |
|---|---|
| Airport | Luis Munoz Marin International Airport (TJSJ) |
Arrival
| Time | 2026-05-04 00:32 |
|---|---|
| Airport | San Francisco International Airport (KSFO) |
| Time | Latitude | Longitude | Altitude | Speed | Heading |
|---|---|---|---|---|---|
| 2026-05-04 00:04 | 37.81220 | -119.41941 | 22942 ft | 379 kts | 260° |
| 2026-05-04 00:04 | 37.80852 | -119.45246 | 22945 ft | 379 kts | 259° |
| 2026-05-04 00:04 | 37.80481 | -119.48552 | 22963 ft | 378 kts | 259° |
| 2026-05-04 00:04 | 37.80123 | -119.51814 | 22960 ft | 379 kts | 259° |
| 2026-05-04 00:05 | 37.79760 | -119.55112 | 22966 ft | 379 kts | 259° |
| 2026-05-04 00:05 | 37.79386 | -119.58413 | 22967 ft | 379 kts | 259° |
| 2026-05-04 00:05 | 37.79014 | -119.61710 | 22972 ft | 378 kts | 259° |
| 2026-05-04 00:05 | 37.78648 | -119.65010 | 22968 ft | 379 kts | 259° |
| 2026-05-04 00:06 | 37.78277 | -119.68322 | 22954 ft | 380 kts | 259° |
| 2026-05-04 00:06 | 37.77900 | -119.71623 | 22955 ft | 380 kts | 259° |
| 2026-05-04 00:06 | 37.77525 | -119.74935 | 22962 ft | 379 kts | 259° |
| 2026-05-04 00:06 | 37.77155 | -119.78234 | 22966 ft | 378 kts | 259° |
| 2026-05-04 00:07 | 37.76779 | -119.81527 | 22952 ft | 378 kts | 259° |
| 2026-05-04 00:07 | 37.76401 | -119.84817 | 22952 ft | 378 kts | 259° |
| 2026-05-04 00:07 | 37.76028 | -119.88106 | 22950 ft | 379 kts | 259° |
| 2026-05-04 00:07 | 37.75651 | -119.91400 | 22943 ft | 379 kts | 259° |
| 2026-05-04 00:08 | 37.75270 | -119.94694 | 22939 ft | 379 kts | 259° |
| 2026-05-04 00:08 | 37.74889 | -119.98003 | 22929 ft | 380 kts | 259° |
| 2026-05-04 00:08 | 37.74510 | -120.01307 | 22932 ft | 379 kts | 259° |
| 2026-05-04 00:08 | 37.74126 | -120.04606 | 22937 ft | 380 kts | 259° |
| 2026-05-04 00:09 | 37.73746 | -120.07865 | 22937 ft | 380 kts | 259° |
| 2026-05-04 00:09 | 37.73366 | -120.11168 | 22931 ft | 380 kts | 259° |
| 2026-05-04 00:09 | 37.72981 | -120.14468 | 22925 ft | 380 kts | 259° |
| 2026-05-04 00:09 | 37.72592 | -120.17772 | 22927 ft | 380 kts | 259° |
| 2026-05-04 00:10 | 37.72206 | -120.21074 | 22937 ft | 380 kts | 259° |
| 2026-05-04 00:10 | 37.71817 | -120.24379 | 22940 ft | 380 kts | 258° |
| 2026-05-04 00:10 | 37.71427 | -120.27678 | 22935 ft | 380 kts | 258° |
| 2026-05-04 00:10 | 37.71041 | -120.30966 | 22926 ft | 381 kts | 259° |
| 2026-05-04 00:11 | 37.70652 | -120.34275 | 22926 ft | 381 kts | 258° |
| 2026-05-04 00:11 | 37.70254 | -120.37587 | 22918 ft | 381 kts | 258° |
| 2026-05-04 00:11 | 37.69859 | -120.40898 | 22929 ft | 381 kts | 258° |
| 2026-05-04 00:11 | 37.69477 | -120.44195 | 22935 ft | 380 kts | 259° |
| 2026-05-04 00:12 | 37.69100 | -120.47515 | 22929 ft | 380 kts | 259° |
| 2026-05-04 00:12 | 37.68715 | -120.50818 | 22925 ft | 379 kts | 258° |
| 2026-05-04 00:12 | 37.68322 | -120.54110 | 22923 ft | 379 kts | 259° |
| 2026-05-04 00:12 | 37.67942 | -120.57401 | 22915 ft | 379 kts | 259° |
| 2026-05-04 00:13 | 37.67563 | -120.60693 | 22916 ft | 379 kts | 259° |
| 2026-05-04 00:13 | 37.67167 | -120.63993 | 22794 ft | 380 kts | 258° |
| 2026-05-04 00:13 | 37.66774 | -120.67290 | 22654 ft | 379 kts | 259° |
| 2026-05-04 00:13 | 37.66396 | -120.70578 | 22508 ft | 377 kts | 259° |
| 2026-05-04 00:14 | 37.66010 | -120.73843 | 22298 ft | 376 kts | 258° |
| 2026-05-04 00:14 | 37.65611 | -120.77107 | 22050 ft | 375 kts | 258° |
| 2026-05-04 00:14 | 37.65230 | -120.80307 | 21770 ft | 372 kts | 259° |
| 2026-05-04 00:14 | 37.64850 | -120.83523 | 21487 ft | 369 kts | 258° |
| 2026-05-04 00:15 | 37.64459 | -120.86718 | 21186 ft | 366 kts | 258° |
| 2026-05-04 00:15 | 37.64073 | -120.89883 | 20912 ft | 363 kts | 258° |
| 2026-05-04 00:15 | 37.63701 | -120.93021 | 20627 ft | 360 kts | 258° |
| 2026-05-04 00:15 | 37.63324 | -120.96126 | 20351 ft | 357 kts | 258° |
| 2026-05-04 00:16 | 37.62926 | -120.99205 | 20078 ft | 354 kts | 257° |
| 2026-05-04 00:16 | 37.62501 | -121.02253 | 19812 ft | 351 kts | 257° |
| 2026-05-04 00:16 | 37.62096 | -121.05244 | 19558 ft | 349 kts | 258° |
| 2026-05-04 00:16 | 37.61709 | -121.08267 | 19265 ft | 348 kts | 258° |
| 2026-05-04 00:17 | 37.61306 | -121.11265 | 18999 ft | 346 kts | 257° |
| 2026-05-04 00:17 | 37.60892 | -121.14244 | 18710 ft | 345 kts | 257° |
| 2026-05-04 00:17 | 37.60495 | -121.17238 | 18311 ft | 347 kts | 258° |
| 2026-05-04 00:17 | 37.60102 | -121.20243 | 17864 ft | 348 kts | 257° |
| 2026-05-04 00:18 | 37.59686 | -121.23255 | 17421 ft | 350 kts | 257° |
| 2026-05-04 00:18 | 37.59273 | -121.26283 | 16977 ft | 350 kts | 258° |
| 2026-05-04 00:18 | 37.58974 | -121.29337 | 16544 ft | 351 kts | 260° |
| 2026-05-04 00:18 | 37.58620 | -121.32376 | 16127 ft | 350 kts | 257° |
| 2026-05-04 00:19 | 37.58198 | -121.35400 | 15724 ft | 350 kts | 258° |
| 2026-05-04 00:19 | 37.57849 | -121.38437 | 15308 ft | 350 kts | 260° |
| 2026-05-04 00:19 | 37.57553 | -121.41483 | 14891 ft | 350 kts | 259° |
| 2026-05-04 00:19 | 37.57198 | -121.44504 | 14462 ft | 346 kts | 258° |
| 2026-05-04 00:20 | 37.56812 | -121.47506 | 13979 ft | 343 kts | 258° |
| 2026-05-04 00:20 | 37.56471 | -121.50460 | 13540 ft | 338 kts | 259° |
| 2026-05-04 00:20 | 37.56159 | -121.53374 | 13104 ft | 333 kts | 259° |
| 2026-05-04 00:20 | 37.55821 | -121.56241 | 12656 ft | 328 kts | 258° |
| 2026-05-04 00:21 | 37.55472 | -121.59058 | 12216 ft | 324 kts | 258° |
| 2026-05-04 00:21 | 37.55143 | -121.61867 | 11761 ft | 323 kts | 258° |
| 2026-05-04 00:21 | 37.54614 | -121.64590 | 11379 ft | 319 kts | 249° |
| 2026-05-04 00:21 | 37.53905 | -121.67231 | 10938 ft | 318 kts | 248° |
| 2026-05-04 00:22 | 37.53279 | -121.69856 | 10469 ft | 316 kts | 252° |
| 2026-05-04 00:22 | 37.52718 | -121.72541 | 9998 ft | 308 kts | 251° |
| 2026-05-04 00:22 | 37.52107 | -121.75062 | 9532 ft | 300 kts | 248° |
| 2026-05-04 00:22 | 37.51452 | -121.77527 | 9031 ft | 293 kts | 249° |
| 2026-05-04 00:23 | 37.50880 | -121.79979 | 8532 ft | 288 kts | 251° |
| 2026-05-04 00:23 | 37.50349 | -121.82394 | 8048 ft | 285 kts | 250° |
| 2026-05-04 00:23 | 37.49756 | -121.84776 | 7563 ft | 285 kts | 248° |
| 2026-05-04 00:23 | 37.49154 | -121.87152 | 7067 ft | 283 kts | 250° |
| 2026-05-04 00:24 | 37.48921 | -121.89589 | 6487 ft | 283 kts | 276° |
| 2026-05-04 00:24 | 37.49442 | -121.91920 | 6017 ft | 273 kts | 287° |
| 2026-05-04 00:24 | 37.49936 | -121.94194 | 5492 ft | 265 kts | 276° |
| 2026-05-04 00:24 | 37.50129 | -121.96455 | 5039 ft | 256 kts | 272° |
| 2026-05-04 00:25 | 37.50392 | -121.98554 | 4599 ft | 238 kts | 282° |
| 2026-05-04 00:25 | 37.50863 | -122.00487 | 4142 ft | 225 kts | 284° |
| 2026-05-04 00:25 | 37.51218 | -122.02365 | 3697 ft | 216 kts | 276° |
| 2026-05-04 00:25 | 37.51414 | -122.04200 | 3244 ft | 208 kts | 276° |
| 2026-05-04 00:26 | 37.51703 | -122.05962 | 3171 ft | 203 kts | 282° |
| 2026-05-04 00:26 | 37.52046 | -122.07668 | 2983 ft | 191 kts | 280° |
| 2026-05-04 00:26 | 37.52299 | -122.09287 | 2997 ft | 194 kts | 277° |
| 2026-05-04 00:26 | 37.52536 | -122.10944 | 2993 ft | 189 kts | 279° |
| 2026-05-04 00:27 | 37.52818 | -122.12583 | 2995 ft | 193 kts | 280° |
| 2026-05-04 00:27 | 37.53106 | -122.14207 | 2993 ft | 189 kts | 279° |
| 2026-05-04 00:27 | 37.53366 | -122.15846 | 2998 ft | 190 kts | 278° |
| 2026-05-04 00:27 | 37.53652 | -122.17478 | 2990 ft | 196 kts | 285° |
| 2026-05-04 00:28 | 37.54318 | -122.18969 | 2978 ft | 191 kts | 301° |
| 2026-05-04 00:28 | 37.54957 | -122.20394 | 2732 ft | 182 kts | 292° |
| 2026-05-04 00:28 | 37.55486 | -122.21784 | 2490 ft | 170 kts | 293° |
| 2026-05-04 00:28 | 37.56057 | -122.23087 | 2286 ft | 169 kts | 295° |
| 2026-05-04 00:29 | 37.56610 | -122.24357 | 2053 ft | 166 kts | 295° |
| 2026-05-04 00:29 | 37.57145 | -122.25636 | 1857 ft | 167 kts | 294° |
| 2026-05-04 00:29 | 37.57679 | -122.26939 | 1631 ft | 166 kts | 295° |
| 2026-05-04 00:29 | 37.58212 | -122.28216 | 1392 ft | 165 kts | 295° |
| 2026-05-04 00:30 | 37.58744 | -122.29461 | 1169 ft | 155 kts | 294° |
| 2026-05-04 00:30 | 37.59250 | -122.30641 | 912 ft | 153 kts | 296° |
| 2026-05-04 00:30 | 37.59774 | -122.31790 | 624 ft | 154 kts | 292° |
| 2026-05-04 00:30 | 37.60290 | -122.33030 | 460 ft | 167 kts | 292° |
| 2026-05-04 00:31 | 37.60775 | -122.34329 | 319 ft | 162 kts | 292° |
| 2026-05-04 00:31 | 37.61313 | -122.35608 | 101 ft | 167 kts | 294° |
| 2026-05-04 00:31 | 37.61840 | -122.36844 | 27 ft | 147 kts | 293° |
| 2026-05-04 00:31 | 37.62215 | -122.37822 | 27 ft | 95 kts | 298° |
| 2026-05-04 00:32 | 37.62467 | -122.38384 | 25 ft | 61 kts | 295° |
| 2026-05-04 00:32 | 37.62503 | -122.38706 | 19 ft | 31 kts | 268° |
| 2026-05-04 00:32 | 37.62501 | -122.38746 | 21 ft | 0 kts | 266° |
| 2026-05-04 00:33 | 37.62493 | -122.38790 | 21 ft | 5 kts | 253° |
| 2026-05-04 00:33 | 37.62460 | -122.38857 | 21 ft | 11 kts | 219° |
| 2026-05-04 00:34 | 37.62396 | -122.38916 | 20 ft | 12 kts | 214° |
| 2026-05-04 00:34 | 37.62345 | -122.38910 | 17 ft | 3 kts | 144° |
| 2026-05-04 00:34 | 37.62292 | -122.38856 | 16 ft | 15 kts | 141° |
| 2026-05-04 00:34 | 37.62259 | -122.38818 | 16 ft | 3 kts | 158° |
| 2026-05-04 00:35 | 37.62169 | -122.38800 | 15 ft | 15 kts | 191° |
| 2026-05-04 00:35 | 37.62113 | -122.38837 | 15 ft | 6 kts | 212° |
| 2026-05-04 00:35 | 37.62098 | -122.38849 | 16 ft | 0 kts | 211° |